Naples, FL (34117)

7:03 AM EST on January 27, 2015 (GMT -0500)
Chrysler Florida Evaluation Center | Change Station
CLOSE
Current Station
Personal Weather Station
Location: Naples, FL
Elevation: 26 ft
Nearby Weather Stations

Elev 26 ft 26.17 °N, 81.50 °W | Updated 25 seconds ago

Clear
Clear
44.8 °F
Feels Like 45 °F
N
0.1
Wind Variable Wind from NNE
Gusts 0.3 mph

Today
High -- | Low -- °F
--% Chance of Precip.
Yesterday
High -- | Low -- °F
Precip. -- in
7:12 AM 6:05 PM
First Quarter, 53% visible
Pressure 30.03 in
Visibility 10.0 miles
Clouds Scattered Clouds 3300 ft
Windchill 45 °F
Dew Point 44 °F
Humidity 96%
Rainfall 0.00 in
Snow Depth Not available.
UV 0 out of 12
Pollen 6.90 out of 12
Air Quality Not available.
Flu Activity Not available.
METAR KMKY 271155Z AUTO 01006KT 10SM SCT033 12/08 A3003 RMK AO1 70003 52014

More Conditions Fewer Conditions

Pressure 30.03 in
Visibility 10.0 miles
Clouds Scattered Clouds 3300 ft
Windchill 45 °F
Dew Point 44 °F
Humidity 96%
Rainfall 0.00 in
Snow Depth Not available.
UV 0 out of 12
Pollen 6.90 out of 12
Air Quality Not available.
Flu Activity Not available.
METAR KMKY 271155Z AUTO 01006KT 10SM SCT033 12/08 A3003 RMK AO1 70003 52014

More Conditions Fewer Conditions

10-Day Weather Forecast

Almanac

Astronomy

Jan. 27, 2015 Rise Set
Actual Time
Civil Twilight
Nautical Twilight
Astronomical Twilight
Moon
Length of Visible Light
Length of Day
Tomorrow will be .
, % of the Moon is Illuminated

Today's Extremes

State Highs State Lows

Community

WunderPhotos

Upload Photos

1,790,566 photos uploaded!

WunderBlogs® & News

Nearby

Air Quality

  Air Quality AQ Index Pollutant
Not available.

Snow Depth

Station Depth Elevation

Earthquake Activity

City Distance Mag. Time & Date
Minimum magnitude displayed is 2.5.

Coastal Water Temperatures

Place Temperature

Nearby Weather Stations